Time;durP1;ratioP1;P1;durP2;ratioP2;P2;SDS_P1;SDS_P2;PMS_P1;PMS_P2;Temp;Humidity;BMP_temperature;BMP_pressure;BME280_temperature;BME280_humidity;BME280_pressure;Samples;Min_cycle;Max_cycle;Signal;HPM_P1;HPM_P2
2021/07/05 00:00:10;;;;;;;;;4.00;4.00;;;;;19.21;74.43;100804.94;5081222;28;45366;-90
2021/07/05 00:02:35;;;;;;;;;3.00;3.00;;;;;19.22;74.54;100808.47;5080586;27;46653;-89
2021/07/05 00:05:01;;;;;;;;;2.50;2.50;;;;;19.21;73.80;100798.75;5082630;28;45635;-85
2021/07/05 00:07:26;;;;;;;;;3.25;3.00;;;;;19.18;73.92;100793.66;5063954;28;45429;-87
2021/07/05 00:09:51;;;;;;;;;1.75;1.50;;;;;19.15;73.61;100800.06;5081618;28;45685;-87
2021/07/05 00:12:17;;;;;;;;;3.00;3.00;;;;;19.13;73.42;100796.69;5079990;28;45398;-86
2021/07/05 00:14:42;;;;;;;;;2.00;2.00;;;;;19.10;73.25;100796.06;5078843;28;45415;-84
2021/07/05 00:17:08;;;;;;;;;7.25;3.75;;;;;19.07;73.25;100786.50;5081773;28;45857;-86
2021/07/05 00:19:33;;;;;;;;;1.75;1.50;;;;;19.07;74.30;100772.34;5082713;28;45438;-86
2021/07/05 00:21:58;;;;;;;;;2.00;2.00;;;;;19.07;72.98;100765.22;5059481;28;48287;-84
2021/07/05 00:24:24;;;;;;;;;5.00;2.50;;;;;19.06;73.74;100760.00;5081437;27;45398;-87
2021/07/05 00:26:49;;;;;;;;;3.50;3.50;;;;;19.06;74.09;100766.19;5081025;28;45407;-84
2021/07/05 00:29:15;;;;;;;;;5.00;5.00;;;;;19.08;73.31;100790.03;5081038;28;45405;-86
2021/07/05 00:31:40;;;;;;;;;3.50;3.50;;;;;19.06;73.28;100790.16;5083163;28;45453;-86
2021/07/05 00:34:06;;;;;;;;;4.00;2.75;;;;;19.02;72.94;100784.22;5080142;28;45435;-84
2021/07/05 00:36:31;;;;;;;;;6.75;4.00;;;;;19.01;73.68;100782.50;5080029;27;45395;-87
2021/07/05 00:38:56;;;;;;;;;3.50;3.00;;;;;19.01;74.19;100785.19;5061781;28;46211;-88
2021/07/05 00:41:22;;;;;;;;;2.75;2.00;;;;;19.01;73.25;100792.31;5077171;27;45315;-86
2021/07/05 00:43:47;;;;;;;;;2.50;2.50;;;;;18.98;73.01;100790.72;5075176;28;45474;-85
2021/07/05 00:46:12;;;;;;;;;4.75;4.75;;;;;18.96;73.42;100782.03;5072931;28;45454;-86
2021/07/05 00:48:37;;;;;;;;;7.00;4.00;;;;;18.97;74.00;100777.53;5073220;28;45688;-87
2021/07/05 00:51:03;;;;;;;;;4.25;3.00;;;;;18.96;74.77;100778.50;5071324;27;51688;-85
2021/07/05 00:53:30;;;;;;;;;3.25;2.25;;;;;18.94;74.60;100781.28;5072102;28;45474;-85
2021/07/05 00:55:55;;;;;;;;;3.00;3.00;;;;;18.94;74.22;100772.44;5076637;27;45769;-86
2021/07/05 00:58:21;;;;;;;;;7.00;3.75;;;;;18.92;73.86;100777.91;5072305;28;45512;-85
2021/07/05 01:00:46;;;;;;;;;5.50;3.25;;;;;18.92;73.97;100787.69;5071953;28;45453;-85
2021/07/05 01:03:12;;;;;;;;;3.50;3.50;;;;;18.89;74.93;100785.25;5071422;28;45349;-85
2021/07/05 01:05:38;;;;;;;;;5.25;3.50;;;;;18.90;74.66;100784.31;5068991;28;45558;-85
2021/07/05 01:08:04;;;;;;;;;3.75;3.00;;;;;18.89;74.66;100771.94;5074583;28;45461;-87
2021/07/05 01:10:30;;;;;;;;;2.75;2.75;;;;;18.88;75.00;100754.28;5073819;27;46282;-86
2021/07/05 01:12:57;;;;;;;;;3.00;2.75;;;;;18.89;75.00;100754.16;5072014;27;45519;-86
2021/07/05 01:15:26;;;;;;;;;3.50;2.00;;;;;18.89;74.08;100753.31;5073026;28;46882;-88
2021/07/05 01:17:52;;;;;;;;;3.00;3.00;;;;;18.86;73.83;100748.22;5070778;28;45265;-87
2021/07/05 01:20:20;;;;;;;;;4.75;2.75;;;;;18.85;74.23;100758.03;5072855;28;45470;-86
2021/07/05 01:22:46;;;;;;;;;4.25;3.75;;;;;18.84;73.77;100753.66;5053173;28;45664;-87
2021/07/05 01:25:18;;;;;;;;;4.00;3.50;;;;;18.83;73.93;100732.47;5063043;28;45895;-87
2021/07/05 01:27:44;;;;;;;;;2.75;1.50;;;;;18.80;74.20;100724.75;5044815;28;45486;-84
2021/07/05 01:30:12;;;;;;;;;3.00;2.00;;;;;18.76;73.20;100732.13;5050518;28;46234;-86
2021/07/05 01:32:38;;;;;;;;;4.25;3.00;;;;;18.74;73.77;100726.91;5052563;28;45431;-85
2021/07/05 01:35:06;;;;;;;;;3.00;3.00;;;;;18.72;74.13;100730.66;5056659;28;45501;-86
2021/07/05 01:37:32;;;;;;;;;3.00;2.00;;;;;18.70;73.68;100719.28;5056926;28;45520;-87
2021/07/05 01:39:57;;;;;;;;;3.00;3.00;;;;;18.68;73.34;100726.53;5054961;28;46099;-87
2021/07/05 01:42:22;;;;;;;;;4.00;2.25;;;;;18.66;73.64;100710.66;5054730;28;45429;-86
2021/07/05 01:44:48;;;;;;;;;3.00;3.00;;;;;18.64;74.01;100717.91;5055382;28;45421;-87
2021/07/05 01:47:13;;;;;;;;;1.75;1.75;;;;;18.64;74.28;100735.69;5055600;28;45457;-85
2021/07/05 01:49:41;;;;;;;;;3.00;3.00;;;;;18.62;73.68;100742.94;5057304;28;45354;-81
2021/07/05 01:52:07;;;;;;;;;2.00;2.00;;;;;18.58;74.41;100750.28;5055705;28;45383;-85
2021/07/05 01:54:32;;;;;;;;;2.00;2.00;;;;;18.58;74.48;100747.63;5055254;28;45480;-88
2021/07/05 01:56:57;;;;;;;;;3.25;2.00;;;;;18.57;74.82;100745.09;5054657;28;45330;-84
2021/07/05 01:59:23;;;;;;;;;2.50;2.00;;;;;18.56;74.93;100735.44;5055348;28;45427;-86
2021/07/05 02:01:48;;;;;;;;;5.00;3.50;;;;;18.57;75.07;100737.13;5056075;28;45520;-86
2021/07/05 02:04:14;;;;;;;;;2.00;2.00;;;;;18.57;75.58;100731.78;5055464;28;45559;-87
2021/07/05 02:06:39;;;;;;;;;4.00;3.25;;;;;18.58;75.44;100728.16;5050752;28;45608;-85
2021/07/05 02:09:07;;;;;;;;;3.75;3.00;;;;;18.57;75.66;100740.63;5054578;28;48072;-86
2021/07/05 02:11:33;;;;;;;;;3.25;3.00;;;;;18.57;76.25;100735.31;5053431;28;45641;-86
2021/07/05 02:13:59;;;;;;;;;3.75;3.00;;;;;18.57;76.00;100745.09;5056778;28;45408;-85
2021/07/05 02:16:24;;;;;;;;;3.50;3.00;;;;;18.54;74.83;100742.69;5055587;28;45496;-87
2021/07/05 02:18:50;;;;;;;;;4.75;3.00;;;;;18.51;75.18;100744.59;5054607;28;47181;-86
2021/07/05 02:21:15;;;;;;;;;2.75;2.00;;;;;18.52;75.17;100745.44;5054911;28;45539;-85
2021/07/05 02:23:40;;;;;;;;;2.75;2.75;;;;;18.47;75.03;100731.66;5058605;28;45453;-86
2021/07/05 02:26:07;;;;;;;;;4.50;2.50;;;;;18.47;75.11;100740.47;5075781;27;45304;-81
2021/07/05 02:28:36;;;;;;;;;3.00;3.00;;;;;18.48;74.96;100736.03;5075982;28;45338;-86
2021/07/05 02:31:06;;;;;;;;;4.00;3.25;;;;;18.49;75.85;100727.06;5074171;28;45407;-86
2021/07/05 02:33:32;;;;;;;;;4.00;3.00;;;;;18.50;76.11;100726.94;5075541;27;45454;-86
2021/07/05 02:35:59;;;;;;;;;4.00;3.00;;;;;18.49;76.47;100724.41;5074897;27;45379;-87
2021/07/05 02:38:24;;;;;;;;;3.50;3.50;;;;;18.52;76.34;100726.81;5074920;27;46292;-87
2021/07/05 02:40:52;;;;;;;;;3.00;2.00;;;;;18.50;75.66;100718.97;5076237;27;45433;-87
2021/07/05 02:43:19;;;;;;;;;3.25;3.00;;;;;18.48;76.08;100712.06;5057517;27;45382;-88
2021/07/05 02:45:46;;;;;;;;;5.00;3.00;;;;;18.47;75.64;100713.00;5074394;28;45624;-88
2021/07/05 02:48:16;;;;;;;;;2.75;2.75;;;;;18.44;75.34;100698.16;5073308;28;45397;-89
2021/07/05 02:50:45;;;;;;;;;2.75;2.00;;;;;18.40;74.98;100685.19;5073431;28;45233;-89
2021/07/05 02:53:12;;;;;;;;;3.00;3.00;;;;;18.39;75.67;100696.81;5057540;28;45454;-90
2021/07/05 02:55:38;;;;;;;;;4.00;2.50;;;;;18.36;75.20;100689.03;5057666;28;45401;-87
2021/07/05 02:58:04;;;;;;;;;3.00;2.00;;;;;18.31;75.17;100683.22;5074554;27;46010;-87
2021/07/05 03:00:36;;;;;;;;;5.00;2.25;;;;;18.26;76.32;100681.75;5074734;28;47893;-88
2021/07/05 03:03:01;;;;;;;;;2.50;2.50;;;;;18.25;76.25;100674.75;5074934;28;45499;-88
2021/07/05 03:05:29;;;;;;;;;3.00;3.00;;;;;18.23;76.60;100674.03;5074172;27;45501;-87
2021/07/05 03:07:56;;;;;;;;;4.00;3.50;;;;;18.23;76.28;100678.50;5072082;28;46391;-89
2021/07/05 03:10:28;;;;;;;;;3.00;2.00;;;;;18.18;77.19;100667.34;5073880;28;45741;-88
2021/07/05 03:12:56;;;;;;;;;3.00;3.00;;;;;18.21;76.27;100665.28;5074170;28;45288;-84
2021/07/05 03:15:22;;;;;;;;;6.00;3.25;;;;;18.19;76.51;100666.38;5074641;28;45565;-88
2021/07/05 03:17:48;;;;;;;;;5.50;4.00;;;;;18.21;77.18;100664.44;5053981;28;48091;-86
2021/07/05 03:20:20;;;;;;;;;5.75;3.00;;;;;18.21;77.37;100664.44;5073135;28;45759;-85
2021/07/05 03:22:46;;;;;;;;;2.50;1.00;;;;;18.18;77.54;100665.53;5076465;28;45311;-87
2021/07/05 03:25:14;;;;;;;;;4.00;3.50;;;;;18.17;77.71;100665.66;5072641;28;45280;-88
2021/07/05 03:27:41;;;;;;;;;4.00;4.00;;;;;18.14;77.71;100668.56;5074216;28;46168;-87
2021/07/05 03:30:09;;;;;;;;;4.50;3.25;;;;;18.12;78.72;100679.31;5072428;28;45616;-85
2021/07/05 03:32:35;;;;;;;;;5.00;3.25;;;;;18.12;78.55;100674.00;5057114;28;45586;-85
2021/07/05 03:35:03;;;;;;;;;4.75;3.50;;;;;18.12;78.84;100665.16;5075083;27;45416;-83
2021/07/05 03:37:29;;;;;;;;;2.50;2.50;;;;;18.10;79.29;100670.59;5077020;27;45638;-84
2021/07/05 03:39:54;;;;;;;;;3.25;3.25;;;;;18.10;78.51;100659.94;5076922;28;45581;-83
2021/07/05 03:42:19;;;;;;;;;3.25;3.25;;;;;18.08;78.77;100656.56;5074247;28;45307;-83
2021/07/05 03:44:45;;;;;;;;;3.75;3.75;;;;;18.08;79.06;100655.72;5069470;27;51708;-84
2021/07/05 03:47:10;;;;;;;;;5.00;2.50;;;;;18.07;78.86;100654.88;5074121;28;46497;-83
2021/07/05 03:49:35;;;;;;;;;4.75;3.00;;;;;18.04;79.40;100657.75;5075070;27;45302;-83
2021/07/05 03:52:01;;;;;;;;;5.25;3.00;;;;;18.03;79.24;100648.09;5053955;28;45466;-83
2021/07/05 03:54:27;;;;;;;;;7.75;4.00;;;;;18.01;79.21;100639.38;5064282;27;45463;-82
2021/07/05 03:56:52;;;;;;;;;4.00;3.00;;;;;17.98;79.49;100643.09;5072156;28;45415;-83
2021/07/05 03:59:17;;;;;;;;;4.00;4.00;;;;;17.94;79.04;100633.66;5055356;28;45319;-83
2021/07/05 04:01:43;;;;;;;;;6.00;4.00;;;;;17.94;79.07;100627.50;5054294;28;45299;-84
2021/07/05 04:04:08;;;;;;;;;3.75;3.50;;;;;17.91;79.47;100628.59;5071644;27;45372;-85
2021/07/05 04:06:33;;;;;;;;;2.25;2.00;;;;;17.90;79.53;100620.72;5071684;28;46083;-85
2021/07/05 04:09:00;;;;;;;;;4.75;4.00;;;;;17.89;80.09;100616.38;5071759;28;45459;-85
2021/07/05 04:11:25;;;;;;;;;3.00;2.75;;;;;17.88;80.10;100620.00;5056589;28;45445;-84
2021/07/05 04:13:51;;;;;;;;;1.50;1.00;;;;;17.84;79.28;100607.88;5075682;27;45358;-85
2021/07/05 04:16:16;;;;;;;;;2.25;2.25;;;;;17.82;79.32;100604.50;5072940;28;45636;-83
2021/07/05 04:18:42;;;;;;;;;3.00;3.00;;;;;17.81;80.19;100600.16;5072701;28;45546;-84
2021/07/05 04:21:07;;;;;;;;;5.25;3.75;;;;;17.79;80.00;100602.06;5073020;28;45737;-83
2021/07/05 04:23:33;;;;;;;;;3.25;2.25;;;;;17.77;80.08;100591.56;5071957;28;45403;-83
2021/07/05 04:25:59;;;;;;;;;3.00;3.00;;;;;17.77;79.63;100590.72;5074642;28;45416;-82
2021/07/05 04:28:25;;;;;;;;;2.25;2.00;;;;;17.77;79.75;100598.69;5073334;28;46320;-82
2021/07/05 04:30:51;;;;;;;;;3.00;3.00;;;;;17.71;79.03;100592.84;5073784;28;45557;-83
2021/07/05 04:33:16;;;;;;;;;3.00;3.00;;;;;17.74;79.14;100599.75;5071907;28;45454;-83
2021/07/05 04:35:42;;;;;;;;;3.00;3.00;;;;;17.71;79.61;100592.84;5071425;28;45953;-75
2021/07/05 04:38:07;;;;;;;;;6.50;4.00;;;;;17.71;80.29;100590.19;5074084;27;48745;-82
2021/07/05 04:40:36;;;;;;;;;3.25;3.25;;;;;17.72;79.77;100596.34;5074876;28;45339;-83
2021/07/05 04:43:04;;;;;;;;;2.50;2.50;;;;;17.71;80.19;100602.63;5073520;28;45387;-83
2021/07/05 04:45:30;;;;;;;;;3.50;2.50;;;;;17.71;80.28;100599.97;5071340;28;45487;-83
2021/07/05 04:47:57;;;;;;;;;3.50;2.00;;;;;17.67;80.04;100593.19;5071238;28;45603;-83
2021/07/05 04:50:23;;;;;;;;;1.75;1.75;;;;;17.64;79.64;100596.06;5072597;28;45406;-82
2021/07/05 04:52:48;;;;;;;;;4.00;1.50;;;;;17.63;80.04;100597.03;5075053;28;45352;-82
2021/07/05 04:55:16;;;;;;;;;1.00;1.00;;;;;17.63;80.37;100589.03;5071746;28;45528;-82
2021/07/05 04:57:42;;;;;;;;;2.00;2.00;;;;;17.62;80.46;100585.53;5072755;27;45564;-82
2021/07/05 05:00:13;;;;;;;;;2.00;2.00;;;;;17.61;80.64;100575.88;5072330;27;45554;-81
2021/07/05 05:02:39;;;;;;;;;3.00;3.00;;;;;17.63;80.24;100567.78;5071109;28;45418;-85
2021/07/05 05:05:05;;;;;;;;;3.25;3.00;;;;;17.61;80.51;100556.44;5073517;28;45580;-84
2021/07/05 05:07:31;;;;;;;;;6.00;4.00;;;;;17.61;80.68;100548.47;5075552;28;45493;-86
2021/07/05 05:10:01;;;;;;;;;2.00;2.00;;;;;17.60;79.88;100542.31;5059304;27;45529;-85
2021/07/05 05:12:26;;;;;;;;;1.75;1.00;;;;;17.58;79.97;100530.09;5076505;28;45509;-85
2021/07/05 05:14:52;;;;;;;;;2.00;2.00;;;;;17.58;79.87;100527.44;5076304;28;46032;-83
2021/07/05 05:17:17;;;;;;;;;1.00;1.00;;;;;17.57;79.82;100525.75;5076235;27;45476;-85
2021/07/05 05:19:42;;;;;;;;;1.00;1.00;;;;;17.50;80.10;100509.41;5056124;28;45463;-85
2021/07/05 05:22:08;;;;;;;;;1.50;1.00;;;;;17.51;79.89;100510.25;5073822;27;45256;-84
2021/07/05 05:24:33;;;;;;;;;3.00;1.50;;;;;17.55;79.63;100517.88;5074534;27;45923;-83
2021/07/05 05:26:59;;;;;;;;;1.00;1.00;;;;;17.58;79.90;100506.16;5059491;28;45921;-82
2021/07/05 05:29:24;;;;;;;;;1.00;1.00;;;;;17.61;79.91;100495.31;5075163;27;45404;-83
2021/07/05 05:31:49;;;;;;;;;1.75;1.75;;;;;17.59;80.01;100497.22;5075845;28;45335;-87
2021/07/05 05:34:15;;;;;;;;;2.00;2.00;;;;;17.53;80.20;100487.06;5074012;27;45522;-89
2021/07/05 05:36:40;;;;;;;;;1.25;1.00;;;;;17.48;79.50;100472.31;5075820;27;45729;-86
2021/07/05 05:39:05;;;;;;;;;4.25;2.25;;;;;17.47;80.08;100460.00;5075115;27;45788;-80
2021/07/05 05:41:31;;;;;;;;;2.00;1.00;;;;;17.50;80.42;100444.81;5074676;27;45571;-82
2021/07/05 05:44:00;;;;;;;;;1.00;1.00;;;;;17.58;80.30;100445.06;5077205;27;45969;-79
2021/07/05 05:46:28;;;;;;;;;2.25;2.00;;;;;17.72;80.02;100460.78;5074747;27;45783;-79
2021/07/05 05:48:54;;;;;;;;;2.00;2.00;;;;;17.86;80.29;100460.63;5074598;28;45506;-79
2021/07/05 05:51:19;;;;;;;;;2.75;2.00;;;;;18.16;80.41;100469.78;5075578;27;46823;-79
2021/07/05 05:53:44;;;;;;;;;3.50;2.25;;;;;18.35;79.88;100477.16;5075077;28;45546;-79
2021/07/05 05:56:10;;;;;;;;;2.00;2.00;;;;;18.48;79.15;100480.56;5057538;28;45757;-80
2021/07/05 05:58:39;;;;;;;;;1.75;1.75;;;;;18.55;79.44;100494.22;5074333;28;45486;-79
2021/07/05 06:01:05;;;;;;;;;3.00;1.50;;;;;18.65;79.38;100501.34;5064089;28;45763;-80
2021/07/05 06:03:30;;;;;;;;;2.00;2.00;;;;;18.78;78.61;100506.53;5074607;28;45958;-80
2021/07/05 06:05:55;;;;;;;;;2.50;1.75;;;;;18.92;78.24;100502.75;5072719;28;45536;-80
2021/07/05 06:08:20;;;;;;;;;2.00;2.00;;;;;19.04;78.11;100499.94;5073070;28;45418;-79
2021/07/05 06:10:46;;;;;;;;;1.00;1.00;;;;;19.11;77.36;100507.44;5076257;28;45510;-79
2021/07/05 06:13:11;;;;;;;;;2.00;2.00;;;;;19.23;77.57;100495.75;5070492;28;45648;-78
2021/07/05 06:15:37;;;;;;;;;3.00;2.00;;;;;19.37;77.73;100483.94;5073017;27;45524;-77
2021/07/05 06:18:02;;;;;;;;;2.25;2.00;;;;;19.57;77.28;100480.44;5051969;28;45619;-78
2021/07/05 06:20:28;;;;;;;;;2.00;1.25;;;;;19.78;76.39;100492.00;5073349;28;45410;-79
2021/07/05 06:22:56;;;;;;;;;3.50;2.00;;;;;20.00;76.27;100493.66;5076300;28;46178;-78
2021/07/05 06:25:23;;;;;;;;;2.25;2.25;;;;;20.09;75.50;100497.34;5074760;28;45433;-79
2021/07/05 06:27:49;;;;;;;;;0.50;0.50;;;;;20.14;75.13;100488.94;5073574;28;47382;-79
2021/07/05 06:30:16;;;;;;;;;2.00;2.00;;;;;20.13;74.98;100504.09;5074590;27;45505;-78
2021/07/05 06:32:42;;;;;;;;;1.50;0.75;;;;;20.05;74.45;100502.13;5073442;28;47222;-80
2021/07/05 06:35:09;;;;;;;;;1.25;1.00;;;;;19.94;74.81;100498.66;5071649;28;45851;-85
2021/07/05 06:37:35;;;;;;;;;3.00;3.00;;;;;19.84;75.20;100501.31;5057500;28;45375;-80
2021/07/05 06:40:01;;;;;;;;;2.50;1.25;;;;;19.74;74.72;100503.91;5063010;28;45280;-83
2021/07/05 06:42:26;;;;;;;;;1.50;1.50;;;;;19.66;74.90;100495.69;5070574;27;45527;-80
2021/07/05 06:44:51;;;;;;;;;2.00;2.00;;;;;19.55;75.20;100496.56;5066852;28;50999;-79
2021/07/05 06:47:17;;;;;;;;;2.00;2.00;;;;;19.51;75.03;100504.94;5073235;27;45552;-81
2021/07/05 06:49:43;;;;;;;;;1.00;1.00;;;;;19.53;75.82;100506.53;5051632;28;45571;-80
2021/07/05 06:52:09;;;;;;;;;2.00;2.00;;;;;19.60;75.50;100506.03;5070989;28;45376;-81
2021/07/05 06:54:34;;;;;;;;;2.25;1.00;;;;;19.65;75.63;100494.00;5074959;28;45474;-80
2021/07/05 06:57:00;;;;;;;;;2.00;2.00;;;;;19.64;75.18;100499.47;5073300;27;45445;-80
2021/07/05 06:59:25;;;;;;;;;3.00;1.75;;;;;19.64;75.70;100500.31;5074225;27;45528;-79
2021/07/05 07:01:50;;;;;;;;;1.50;1.50;;;;;19.67;75.97;100492.03;5072282;28;45493;-81
2021/07/05 07:04:16;;;;;;;;;0.50;0.50;;;;;19.81;75.61;100498.88;5072889;28;45285;-80
2021/07/05 07:06:41;;;;;;;;;1.50;1.50;;;;;19.91;75.85;100490.94;5071533;28;45334;-79
2021/07/05 07:09:07;;;;;;;;;4.00;2.00;;;;;20.00;75.45;100491.00;5072364;28;45469;-80
2021/07/05 07:11:32;;;;;;;;;2.50;2.00;;;;;20.10;75.63;100492.84;5072629;27;45449;-81
2021/07/05 07:13:58;;;;;;;;;2.00;2.00;;;;;20.23;75.03;100497.00;5076665;27;45473;-80
2021/07/05 07:16:26;;;;;;;;;2.75;2.00;;;;;20.30;74.78;100499.97;5032700;27;45405;-79
2021/07/05 07:21:36;;;;;;;;;2.00;0.50;;;;;20.29;74.07;100503.63;4994816;28;45478;-82
2021/07/05 07:24:01;;;;;;;;;1.00;1.00;;;;;20.31;74.77;100504.34;4993266;28;45490;-76
2021/07/05 07:26:27;;;;;;;;;2.00;2.00;;;;;20.35;74.14;100508.41;4994461;28;45483;-81
2021/07/05 07:28:52;;;;;;;;;3.00;3.00;;;;;20.41;74.39;100507.91;4993701;28;45456;-82
2021/07/05 07:31:21;;;;;;;;;1.50;1.50;;;;;20.44;74.25;100496.09;4992481;28;46063;-82
2021/07/05 07:33:48;;;;;;;;;1.75;1.75;;;;;20.44;74.17;100502.28;5008873;28;45797;-79
2021/07/05 07:36:15;;;;;;;;;0.75;0.75;;;;;20.34;73.62;100512.06;4993711;28;45713;-81
2021/07/05 07:38:45;;;;;;;;;2.00;2.00;;;;;20.25;73.85;100504.84;4994017;28;45611;-80
2021/07/05 07:41:11;;;;;;;;;1.00;1.00;;;;;20.20;75.09;100518.63;4993811;28;46414;-83
2021/07/05 07:43:37;;;;;;;;;1.75;0.75;;;;;20.27;74.34;100516.25;4993955;28;45554;-77
2021/07/05 07:46:02;;;;;;;;;4.00;2.75;;;;;20.34;74.46;100515.59;4993880;28;45679;-79
2021/07/05 07:48:28;;;;;;;;;2.00;2.00;;;;;20.43;74.38;100524.63;4994070;28;45353;-78
2021/07/05 07:50:53;;;;;;;;;0.75;0.75;;;;;20.52;73.35;100523.84;4994460;28;46553;-79
2021/07/05 07:53:19;;;;;;;;;1.00;1.00;;;;;20.57;74.10;100526.97;4995011;28;45352;-79
2021/07/05 07:55:44;;;;;;;;;2.00;1.50;;;;;20.69;74.17;100522.34;4995120;28;46453;-78
2021/07/05 07:58:09;;;;;;;;;1.50;1.25;;;;;20.92;74.41;100522.13;4994066;28;45477;-78
2021/07/05 08:00:35;;;;;;;;;2.50;1.50;;;;;21.21;73.05;100514.16;4994500;28;46209;-79
2021/07/05 08:03:00;;;;;;;;;0.50;0.50;;;;;21.71;72.68;100498.78;5000283;28;45504;-78
2021/07/05 08:05:25;;;;;;;;;2.75;1.00;;;;;22.21;71.50;100500.41;5002467;28;45397;-78
2021/07/05 08:07:51;;;;;;;;;0.25;0.25;;;;;22.69;71.47;100500.16;5001907;28;45378;-78
2021/07/05 08:10:17;;;;;;;;;1.50;1.25;;;;;23.21;70.32;100500.41;5002731;28;45500;-80
2021/07/05 08:12:44;;;;;;;;;2.00;2.00;;;;;23.53;69.55;100499.84;5002988;28;45342;-78
2021/07/05 08:15:11;;;;;;;;;1.50;1.50;;;;;23.84;68.91;100499.44;5001595;28;45369;-79
2021/07/05 08:17:37;;;;;;;;;1.75;1.50;;;;;24.07;67.51;100497.09;5002293;28;45482;-79
2021/07/05 08:20:06;;;;;;;;;1.00;1.00;;;;;24.12;66.56;100489.41;5017604;28;47359;-80
2021/07/05 08:22:34;;;;;;;;;2.00;2.00;;;;;24.07;66.25;100487.19;5001342;28;45287;-79
2021/07/05 08:24:59;;;;;;;;;1.75;1.00;;;;;24.00;66.53;100499.53;4998912;28;45429;-78
2021/07/05 08:27:24;;;;;;;;;1.00;1.00;;;;;24.08;67.00;100496.09;5003063;28;45463;-79
2021/07/05 08:29:50;;;;;;;;;1.25;1.25;;;;;24.40;66.09;100515.06;5002225;28;46293;-78
2021/07/05 08:32:15;;;;;;;;;2.00;2.00;;;;;25.25;65.76;100507.78;5001290;28;45600;-78
2021/07/05 08:34:41;;;;;;;;;2.00;2.00;;;;;25.88;64.02;100508.97;5002434;28;45492;-78
2021/07/05 08:37:06;;;;;;;;;1.00;1.00;;;;;25.78;63.61;100519.09;5016434;28;45531;-80
2021/07/05 08:39:31;;;;;;;;;2.00;1.50;;;;;25.47;62.90;100506.28;5001239;28;45376;-79
2021/07/05 08:41:57;;;;;;;;;1.00;1.00;;;;;25.14;63.50;100510.78;5000622;28;45535;-81
2021/07/05 08:44:23;;;;;;;;;1.50;1.50;;;;;25.42;63.62;100514.03;4998389;28;46632;-79
2021/07/05 08:46:50;;;;;;;;;3.00;1.75;;;;;26.49;63.48;100499.41;4999273;28;45360;-80
2021/07/05 08:49:16;;;;;;;;;2.75;2.75;;;;;26.87;61.47;100514.88;4995181;28;47217;-79
2021/07/05 08:51:41;;;;;;;;;2.25;2.25;;;;;26.89;60.08;100508.31;4997394;28;45426;-79
2021/07/05 08:54:07;;;;;;;;;3.25;2.50;;;;;26.94;60.08;100519.41;4999638;28;45478;-80
2021/07/05 08:56:32;;;;;;;;;1.50;1.50;;;;;26.77;60.08;100507.03;5003241;28;45353;-82
2021/07/05 08:58:58;;;;;;;;;1.50;1.50;;;;;26.48;59.36;100516.59;4996420;28;45469;-82
2021/07/05 09:01:23;;;;;;;;;2.25;1.50;;;;;26.35;60.88;100518.97;4997179;28;45479;-82
2021/07/05 09:03:50;;;;;;;;;3.00;3.00;;;;;26.14;60.02;100524.91;4997016;28;45476;-82
2021/07/05 09:06:24;;;;;;;;;2.00;2.00;;;;;25.72;60.18;100520.56;4997733;28;45428;-81
2021/07/05 09:08:59;;;;;;;;;2.00;2.00;;;;;25.48;61.64;100525.97;4979606;28;47453;-82
2021/07/05 09:11:36;;;;;;;;;4.00;3.00;;;;;25.48;61.95;100528.66;4997295;28;45771;-80
2021/07/05 09:14:12;;;;;;;;;2.50;2.00;;;;;25.48;61.12;100525.97;4994883;28;45357;-82
2021/07/05 09:16:38;;;;;;;;;5.00;3.75;;;;;25.82;61.55;100528.50;4997753;28;45407;-80
2021/07/05 09:19:14;;;;;;;;;1.25;1.25;;;;;26.03;61.34;100519.88;4997958;28;46305;-81
2021/07/05 09:21:46;;;;;;;;;2.00;2.00;;;;;26.12;59.84;100516.19;4997091;28;45529;-81
2021/07/05 09:24:11;;;;;;;;;5.00;2.50;;;;;26.15;60.05;100526.59;4997694;28;45619;-81
2021/07/05 09:26:38;;;;;;;;;3.00;3.00;;;;;26.16;60.15;100535.53;4997122;28;45502;-81
2021/07/05 09:29:15;;;;;;;;;3.00;2.00;;;;;26.05;59.83;100530.47;4998353;28;45708;-81
2021/07/05 09:31:48;;;;;;;;;1.75;1.75;;;;;26.01;59.92;100530.84;4997148;28;45625;-81
2021/07/05 09:34:22;;;;;;;;;2.00;2.00;;;;;26.11;60.40;100530.66;4997394;28;45578;-81
2021/07/05 09:36:50;;;;;;;;;3.00;1.75;;;;;26.28;59.53;100529.59;4997456;28;45387;-82
2021/07/05 09:39:21;;;;;;;;;2.00;2.00;;;;;26.38;59.65;100524.00;4997321;28;46169;-82
2021/07/05 09:41:49;;;;;;;;;1.50;1.50;;;;;26.76;59.18;100518.81;4996802;28;45451;-80
2021/07/05 09:44:18;;;;;;;;;2.00;1.75;;;;;27.17;58.84;100532.94;4998134;28;45560;-80
2021/07/05 09:46:48;;;;;;;;;2.00;1.00;;;;;27.28;58.23;100531.69;4997891;28;45420;-81
2021/07/05 09:49:19;;;;;;;;;1.75;1.75;;;;;27.31;57.78;100523.25;4997024;28;45455;-80
2021/07/05 09:51:47;;;;;;;;;1.25;1.25;;;;;27.10;57.65;100523.91;4996533;28;45645;-79
2021/07/05 09:54:36;;;;;;;;;2.00;2.00;;;;;26.82;57.73;100536.16;4996785;28;45516;-81
2021/07/05 09:57:04;;;;;;;;;1.00;1.00;;;;;26.56;58.14;100542.66;4997097;28;45420;-79
2021/07/05 09:59:30;;;;;;;;;1.00;1.00;;;;;26.16;57.89;100533.69;4989670;28;45305;-80
2021/07/05 10:01:57;;;;;;;;;0.75;0.75;;;;;25.85;58.42;100541.63;4996637;28;45573;-79
2021/07/05 10:04:28;;;;;;;;;1.75;0.50;;;;;25.62;58.74;100557.56;4996959;28;45409;-79
2021/07/05 10:06:58;;;;;;;;;1.00;1.00;;;;;25.73;59.65;100551.84;4996993;28;45495;-81
2021/07/05 10:09:41;;;;;;;;;1.25;1.25;;;;;26.46;59.39;100540.16;4996329;28;49218;-79
2021/07/05 10:12:28;;;;;;;;;1.00;1.00;;;;;27.60;57.93;100538.69;4994105;28;45774;-79
2021/07/05 10:14:56;;;;;;;;;0.25;0.25;;;;;28.63;56.76;100540.72;4989734;28;45554;-80
2021/07/05 10:17:23;;;;;;;;;8.25;7.50;;;;;29.59;53.88;100546.84;4996680;28;45395;-80
2021/07/05 10:19:49;;;;;;;;;33.00;29.75;;;;;30.33;53.48;100540.94;4997224;28;45325;-81
2021/07/05 10:22:15;;;;;;;;;0.25;0.25;;;;;31.08;52.05;100531.09;4995860;28;45254;-82
2021/07/05 10:24:42;;;;;;;;;2.25;1.00;;;;;31.41;51.27;100532.00;4995166;28;45401;-80
2021/07/05 10:27:09;;;;;;;;;0.00;0.00;;;;;31.76;49.23;100537.25;4996981;28;45397;-81
2021/07/05 10:29:37;;;;;;;;;2.00;1.00;;;;;31.91;49.97;100537.91;4996449;28;45901;-79
2021/07/05 10:32:03;;;;;;;;;0.75;0.75;;;;;32.08;49.26;100532.88;4996486;28;45577;-80
2021/07/05 10:34:28;;;;;;;;;0.00;0.00;;;;;32.18;47.97;100535.16;4996882;28;45306;-82
2021/07/05 10:36:56;;;;;;;;;3.25;0.25;;;;;32.16;48.94;100529.09;4996446;28;45406;-82
2021/07/05 10:39:24;;;;;;;;;0.25;0.25;;;;;31.99;48.35;100546.88;4995961;28;45401;-79
2021/07/05 10:41:49;;;;;;;;;1.00;1.00;;;;;31.81;47.43;100553.81;4994989;28;45590;-78
2021/07/05 10:44:20;;;;;;;;;0.00;0.00;;;;;31.38;49.02;100561.47;4995479;28;45431;-77
2021/07/05 10:46:48;;;;;;;;;0.75;0.00;;;;;30.74;48.81;100565.41;4995708;28;45386;-74
2021/07/05 10:49:32;;;;;;;;;0.75;0.75;;;;;30.32;49.49;100583.50;4994872;28;46023;-75
2021/07/05 10:52:03;;;;;;;;;1.00;1.00;;;;;29.89;49.40;100583.56;4991122;28;45754;-76
2021/07/05 10:54:52;;;;;;;;;1.00;1.00;;;;;29.55;49.87;100578.91;4995470;28;45628;-75
2021/07/05 10:57:21;;;;;;;;;2.00;1.00;;;;;29.64;50.77;100575.00;4983747;28;45449;-74
2021/07/05 10:59:49;;;;;;;;;2.25;1.00;;;;;30.06;50.87;100575.97;4991424;28;46400;-74
2021/07/05 11:02:50;;;;;;;;;3.00;1.50;;;;;30.41;49.61;100574.19;4990761;28;45790;-74
2021/07/05 11:05:41;;;;;;;;;1.00;1.00;;;;;30.67;50.10;100565.34;4947301;28;45594;-74
2021/07/05 11:08:17;;;;;;;;;1.00;1.00;;;;;30.57;48.29;100558.63;4936858;28;45971;-73
2021/07/05 11:10:43;;;;;;;;;1.25;1.25;;;;;30.68;48.95;100545.31;4950599;28;46336;-74
2021/07/05 11:13:09;;;;;;;;;1.00;1.00;;;;;30.82;48.89;100561.69;4951087;28;45988;-73
2021/07/05 11:15:54;;;;;;;;;1.00;1.00;;;;;31.01;48.58;100560.94;4950365;28;45798;-74
2021/07/05 11:18:52;;;;;;;;;1.00;1.00;;;;;31.07;48.34;100562.84;4934391;28;45454;-74
2021/07/05 11:21:23;;;;;;;;;1.75;1.75;;;;;30.80;48.15;100572.75;4937431;28;47318;-74
2021/07/05 11:23:58;;;;;;;;;1.00;1.00;;;;;30.26;48.21;100567.19;4930505;28;45698;-74
2021/07/05 11:26:32;;;;;;;;;0.50;0.50;;;;;29.83;49.04;100559.97;4946488;28;45736;-74